Euskara    
Meteorología y climatología de Navarra
Datos de la estación - Meteo Navarra

Estación de Doneztebe-Santesteban GN

Altitud 125 m.


Datos desde el 18/10/2020 hasta el 19/10/2020 en horario solar
Los datos son PROVISIONALES

Anterior Página 1 de 1 Siguiente Descargar: Formato para Excel 2000 o superior   Formato csv   Formato para OpenOffice Calc
Fecha Temperatura Humedad relativa Radiación global Insolación Precipitación Vel. viento 10 m Vel. viento 10 m Dir. viento 10 m
°C % W/m² s l/m² m/s km/h °
18/10/2020 0:00 7.7 99 0.0 0 0.0 0.9 3.3 113
18/10/2020 0:10 7.6 99 0.0 0 0.0 1.0 3.7 109
18/10/2020 0:20 7.5 99 0.0 0 0.0 1.2 4.2 108
18/10/2020 0:30 7.5 99 0.0 0 0.0 0.7 2.6 102
18/10/2020 0:40 7.5 99 0.0 0 0.0 1.0 3.5 113
18/10/2020 0:50 7.5 99 0.0 0 0.0 0.6 2.3 110
18/10/2020 1:00 7.4 99 0.0 0 0.0 1.1 3.8 110
18/10/2020 1:10 7.4 99 0.0 0 0.0 0.7 2.4 104
18/10/2020 1:20 7.5 99 0.0 0 0.0 0.7 2.4 108
18/10/2020 1:30 7.5 99 0.0 0 0.0 0.6 2.2 120
18/10/2020 1:40 7.5 99 0.0 0 0.0 0.6 2.2 110
18/10/2020 1:50 7.4 99 0.0 0 0.0 0.2 0.8 132
18/10/2020 2:00 7.2 99 0.0 0 0.0 0.1 0.4 285
18/10/2020 2:10 7.1 99 0.0 0 0.0 0.4 1.6 301
18/10/2020 2:20 7.0 99 0.0 0 0.0 0.9 3.3 309
18/10/2020 2:30 6.8 99 0.0 0 0.0 0.5 1.7 215
18/10/2020 2:40 6.9 99 0.0 0 0.0 0.3 0.9 299
18/10/2020 2:50 6.8 99 0.0 0 0.0 0.4 1.3 321
18/10/2020 3:00 6.9 99 0.0 0 0.0 0.6 2.2 97
18/10/2020 3:10 6.7 99 0.0 0 0.0 1.4 5.2 105
18/10/2020 3:20 6.5 99 0.0 0 0.0 0.8 2.8 127
18/10/2020 3:30 6.4 99 0.0 0 0.0 1.0 3.6 123
18/10/2020 3:40 6.3 99 0.0 0 0.0 0.1 0.3 122
18/10/2020 3:50 6.3 99 0.0 0 0.0 0.2 0.6 197
18/10/2020 4:00 6.3 99 0.0 0 0.0 0.0 0.0 0
18/10/2020 4:10 6.2 99 0.0 0 0.0 0.3 1.0 306
18/10/2020 4:20 6.2 99 0.0 0 0.0 1.3 4.8 309
18/10/2020 4:30 6.2 99 0.0 0 0.0 1.3 4.8 338
18/10/2020 4:40 6.1 99 0.0 0 0.0 0.9 3.4 320
18/10/2020 4:50 6.0 99 0.0 0 0.0 0.2 0.6 288
18/10/2020 5:00 6.0 100 0.0 0 0.0 0.4 1.3 269
18/10/2020 5:10 6.0 100 0.0 0 0.0 0.1 0.2 231
18/10/2020 5:20 6.0 100 0.0 0 0.0 0.1 0.2 205
18/10/2020 5:30 6.0 100 0.0 0 0.0 0.0 0.0 346
18/10/2020 5:40 6.0 100 0.0 0 0.0 0.0 0.1 264
18/10/2020 5:50 6.1 100 0.0 0 0.0 0.6 2.0 102
18/10/2020 6:00 6.0 100 0.0 0 0.0 0.9 3.1 152
18/10/2020 6:10 5.9 100 0.0 0 0.0 1.0 3.5 98
18/10/2020 6:20 5.8 100 0.0 0 0.0 1.1 4.0 105
18/10/2020 6:30 5.6 100 0.0 0 0.0 1.2 4.4 103
18/10/2020 6:40 5.5 99 0.9 0 0.0 1.0 3.7 104
18/10/2020 6:50 5.5 99 20.8 0 0.0 1.1 4.0 102
18/10/2020 7:00 5.5 100 27.0 0 0.0 1.0 3.5 94
18/10/2020 7:10 5.6 100 37.0 0 0.0 1.0 3.5 94
18/10/2020 7:20 5.6 100 48.3 0 0.0 0.6 2.2 90
18/10/2020 7:30 5.9 100 36.1 0 0.0 0.6 2.3 115
18/10/2020 7:40 5.8 100 62.9 0 0.0 0.5 1.9 109
18/10/2020 7:50 5.9 99 78.4 0 0.0 0.5 1.9 88
18/10/2020 8:00 6.0 99 73.1 0 0.0 0.2 0.6 106
18/10/2020 8:10 5.8 99 68.2 0 0.0 0.1 0.3 79
18/10/2020 8:20 5.9 99 75.8 0 0.0 0.4 1.6 83
18/10/2020 8:30 6.1 99 127.3 0 0.0 0.3 1.1 106
18/10/2020 8:40 6.2 99 132.1 0 0.0 0.1 0.3 51
18/10/2020 8:50 6.6 99 170.4 120 0.0 0.7 2.3 90
18/10/2020 9:00 6.4 98 260.5 588 0.0 0.4 1.5 67
18/10/2020 9:10 6.9 98 218.2 264 0.0 0.6 2.3 100
18/10/2020 9:20 6.9 97 176.9 40 0.0 0.1 0.3 40
18/10/2020 9:30 6.9 97 210.5 22 0.0 0.3 1.0 284
18/10/2020 9:40 7.2 96 241.6 262 0.0 0.1 0.2 146
18/10/2020 9:50 7.8 97 289.7 394 0.0 0.4 1.5 163
18/10/2020 10:00 8.4 94 495.3 600 0.0 0.7 2.4 185
18/10/2020 10:10 9.7 89 533.5 600 0.0 0.1 0.3 95
18/10/2020 10:20 10.4 83 396.5 496 0.0 0.4 1.3 55
18/10/2020 10:30 11.1 81 586.6 600 0.0 0.4 1.4 199
18/10/2020 10:40 12.0 76 612.0 600 0.0 0.5 1.9 210
18/10/2020 10:50 12.4 75 616.7 600 0.0 0.4 1.6 189
18/10/2020 11:00 13.3 72 605.5 600 0.0 0.4 1.4 196
18/10/2020 11:10 13.6 69 620.1 600 0.0 0.5 1.8 204
18/10/2020 11:20 14.2 68 625.1 600 0.0 0.7 2.4 193
18/10/2020 11:30 14.5 65 630.8 600 0.0 0.7 2.4 181
18/10/2020 11:40 15.5 64 634.3 600 0.0 0.6 2.2 170
18/10/2020 11:50 15.9 63 635.3 600 0.0 0.7 2.4 173
18/10/2020 12:00 16.6 61 634.1 600 0.0 0.4 1.4 167
18/10/2020 12:10 16.9 56 631.2 600 0.0 0.4 1.5 181
18/10/2020 12:20 17.7 57 627.8 600 0.0 0.2 0.8 173
18/10/2020 12:30 18.6 56 624.2 600 0.0 0.2 0.8 178
18/10/2020 12:40 19.1 58 620.3 600 0.0 0.2 0.7 168
18/10/2020 12:50 19.6 54 613.8 600 0.0 0.3 1.0 147
18/10/2020 13:00 19.5 53 608.1 600 0.0 0.2 0.6 170
18/10/2020 13:10 19.7 56 562.2 600 0.0 0.1 0.5 176
18/10/2020 13:20 19.3 59 582.4 600 0.0 0.2 0.5 156
18/10/2020 13:30 19.1 58 560.6 600 0.0 0.3 1.1 148
18/10/2020 13:40 19.1 58 548.5 600 0.0 0.4 1.5 166
18/10/2020 13:50 19.5 58 504.9 600 0.0 0.3 1.1 137
18/10/2020 14:00 19.3 61 479.1 600 0.0 0.5 1.8 167
18/10/2020 14:10 18.8 61 440.9 600 0.0 0.5 1.7 166
18/10/2020 14:20 18.4 63 439.3 600 0.0 0.5 1.9 180
18/10/2020 14:30 19.4 65 452.6 600 0.0 0.1 0.3 250
18/10/2020 14:40 19.8 59 416.4 600 0.0 0.6 2.2 174
18/10/2020 14:50 19.2 60 400.7 600 0.0 0.1 0.4 208
18/10/2020 15:00 19.0 59 356.9 600 0.0 0.1 0.2 216
18/10/2020 15:10 19.1 60 325.6 600 0.0 0.2 0.5 236
18/10/2020 15:20 18.6 62 308.6 600 0.0 0.0 0.0 0
18/10/2020 15:30 18.3 62 274.4 600 0.0 0.2 0.5 226
18/10/2020 15:40 18.4 62 237.8 600 0.0 0.1 0.5 250
18/10/2020 15:50 18.7 61 215.2 600 0.0 0.7 2.4 268
18/10/2020 16:00 18.2 67 203.9 600 0.0 0.2 0.9 269
18/10/2020 16:10 18.0 67 171.3 600 0.0 0.3 0.9 287
18/10/2020 16:20 16.5 71 141.0 600 0.0 0.2 0.7 273
18/10/2020 16:30 15.3 78 114.3 600 0.0 0.2 0.6 156
18/10/2020 16:40 14.2 83 47.9 170 0.0 0.3 1.2 261
18/10/2020 16:50 13.7 88 23.4 0 0.0 0.4 1.4 297
18/10/2020 17:00 13.5 88 8.7 0 0.0 0.0 0.0 0
18/10/2020 17:10 13.0 90 0.0 0 0.0 0.0 0.1 289
18/10/2020 17:20 12.4 91 0.0 0 0.0 0.2 0.8 298
18/10/2020 17:30 12.2 92 0.0 0 0.0 0.2 0.6 182
18/10/2020 17:40 11.8 94 0.0 0 0.0 0.3 1.1 171
18/10/2020 17:50 11.4 94 0.0 0 0.0 0.0 0.1 227
18/10/2020 18:00 11.1 95 0.0 0 0.0 0.0 0.0 228
18/10/2020 18:10 10.7 95 0.0 0 0.0 0.2 0.6 254
18/10/2020 18:20 10.4 96 0.0 0 0.0 0.0 0.0 0
18/10/2020 18:30 10.2 96 0.0 0 0.0 0.0 0.1 158
18/10/2020 18:40 9.9 96 0.0 0 0.0 0.0 0.0 301
18/10/2020 18:50 9.8 97 0.0 0 0.0 0.1 0.3 199
18/10/2020 19:00 9.6 96 0.0 0 0.0 0.1 0.2 169
18/10/2020 19:10 9.3 96 0.0 0 0.0 0.0 0.0 0
18/10/2020 19:20 9.1 97 0.0 0 0.0 0.0 0.0 0
18/10/2020 19:30 9.0 97 0.0 0 0.0 0.3 0.9 150
18/10/2020 19:40 8.6 97 0.0 0 0.0 0.2 0.6 222
18/10/2020 19:50 8.6 97 0.0 0 0.0 0.1 0.4 284
18/10/2020 20:00 8.5 98 0.0 0 0.0 0.0 0.0 158
18/10/2020 20:10 8.4 98 0.0 0 0.0 0.0 0.0 216
18/10/2020 20:20 8.2 98 0.0 0 0.0 0.0 0.0 153
18/10/2020 20:30 7.9 97 0.0 0 0.0 0.1 0.5 133
18/10/2020 20:40 7.8 98 0.0 0 0.0 0.1 0.4 201
18/10/2020 20:50 7.7 98 0.0 0 0.0 0.1 0.3 225
18/10/2020 21:00 7.7 98 0.0 0 0.0 0.0 0.1 163
18/10/2020 21:10 7.4 98 0.0 0 0.0 0.0 0.0 0
18/10/2020 21:20 7.3 98 0.0 0 0.0 0.0 0.0 0
18/10/2020 21:30 7.1 98 0.0 0 0.0 0.0 0.0 0
18/10/2020 21:40 7.0 98 0.0 0 0.0 0.1 0.4 168
18/10/2020 21:50 6.9 98 0.0 0 0.0 0.0 0.0 0
18/10/2020 22:00 6.9 98 0.0 0 0.0 0.0 0.0 0
18/10/2020 22:10 6.6 98 0.0 0 0.0 0.0 0.1 178
18/10/2020 22:20 6.7 99 0.0 0 0.0 0.0 0.1 238
18/10/2020 22:30 6.6 99 0.0 0 0.0 0.0 0.0 0
18/10/2020 22:40 6.6 99 0.0 0 0.0 0.1 0.4 238
18/10/2020 22:50 6.6 99 0.0 0 0.0 0.6 2.0 164
18/10/2020 23:00 6.6 99 0.0 0 0.0 0.1 0.2 136
18/10/2020 23:10 6.5 99 0.0 0 0.0 0.3 1.1 212
18/10/2020 23:20 6.3 99 0.0 0 0.0 0.0 0.0 276
18/10/2020 23:30 6.4 99 0.0 0 0.0 0.1 0.4 157
18/10/2020 23:40 6.3 99 0.0 0 0.0 0.5 1.8 155
18/10/2020 23:50 6.6 99 0.0 0 0.0 0.4 1.3 168
Anterior Página 1 de 1 Siguiente

NOTA: Tipo de datos según el color:
   - Valores diarios o 10 minutos correctos
   - Valores diarios calculados a partir de un número de datos 10 minutos menor que 144 y mayor que 120, o de un número de datos semihorarios menor que 48 y mayor que 40 (caso de las estaciones de INTIA Y Ministerio)
   - Valores diez minutos estimados


Contacto        Enlaces        Aviso legal